createdAt,value
2018-12-31T00:02:16.061Z,13.50
2018-12-31T00:04:45.908Z,13.50
2018-12-31T00:07:15.254Z,17.03
2018-12-31T00:09:45.064Z,15.40
2018-12-31T00:12:15.321Z,18.80
2018-12-31T00:14:45.148Z,14.60
2018-12-31T00:17:15.087Z,14.90
2018-12-31T00:19:45.012Z,17.17
2018-12-31T00:22:14.961Z,16.17
2018-12-31T00:24:45.233Z,13.23
2018-12-31T00:27:14.822Z,13.70
2018-12-31T00:29:44.657Z,14.67
2018-12-31T00:32:14.581Z,16.63
2018-12-31T00:34:44.450Z,13.93
2018-12-31T00:37:13.700Z,19.57
2018-12-31T00:39:42.876Z,14.37
2018-12-31T00:42:12.028Z,19.53
2018-12-31T00:44:41.777Z,14.70
2018-12-31T00:47:11.106Z,13.20
2018-12-31T00:49:40.253Z,15.80
2018-12-31T00:52:09.430Z,18.60
2018-12-31T00:54:39.597Z,17.90
2018-12-31T00:57:09.803Z,16.37
2018-12-31T00:59:39.458Z,13.80
2018-12-31T01:02:08.677Z,14.57
2018-12-31T01:04:38.221Z,12.70
2018-12-31T01:07:08.419Z,15.40
2018-12-31T01:09:38.351Z,17.87
2018-12-31T01:12:08.008Z,14.50
2018-12-31T01:14:37.887Z,17.40
2018-12-31T01:17:07.779Z,14.87
2018-12-31T01:19:37.102Z,18.87
2018-12-31T01:22:06.254Z,13.60
2018-12-31T01:24:36.117Z,16.67
2018-12-31T01:27:05.975Z,14.97
2018-12-31T01:29:35.913Z,13.10
2018-12-31T01:32:06.400Z,22.53
2018-12-31T01:34:36.342Z,12.57
2018-12-31T01:37:06.254Z,13.33
2018-12-31T01:39:36.183Z,17.10
2018-12-31T01:42:05.484Z,16.13
2018-12-31T01:44:35.571Z,18.83
2018-12-31T01:47:04.885Z,12.90
2018-12-31T01:49:36.490Z,16.00
2018-12-31T01:52:06.342Z,17.87
2018-12-31T01:54:35.661Z,17.67
2018-12-31T01:57:04.802Z,13.67
2018-12-31T01:59:34.640Z,12.80
2018-12-31T02:02:04.539Z,12.10
2018-12-31T02:04:34.467Z,9.90
2018-12-31T02:07:04.609Z,13.37
2018-12-31T02:09:33.966Z,20.47
2018-12-31T02:12:03.720Z,11.60
2018-12-31T02:14:33.615Z,13.13
2018-12-31T02:17:02.879Z,12.07
2018-12-31T02:19:32.729Z,9.13
2018-12-31T02:22:02.003Z,15.33
2018-12-31T02:24:32.186Z,11.53
2018-12-31T02:27:01.857Z,10.60
2018-12-31T02:29:31.881Z,13.93
2018-12-31T02:32:01.157Z,13.63
2018-12-31T02:34:30.894Z,10.40
2018-12-31T02:37:00.173Z,10.73
2018-12-31T02:39:29.417Z,12.97
2018-12-31T02:41:59.323Z,15.83
2018-12-31T02:44:29.516Z,16.40
2018-12-31T02:46:58.792Z,10.47
2018-12-31T02:49:28.557Z,9.83
2018-12-31T02:51:58.521Z,12.27
2018-12-31T02:54:27.831Z,14.67
2018-12-31T02:56:57.696Z,12.80
2018-12-31T02:59:27.589Z,10.73
2018-12-31T03:01:56.934Z,14.40
2018-12-31T03:04:27.300Z,10.60
2018-12-31T03:06:58.431Z,10.50
2018-12-31T03:09:27.774Z,10.63
2018-12-31T03:11:57.662Z,13.53
2018-12-31T03:14:27.019Z,10.27
2018-12-31T03:16:59.674Z,10.47
2018-12-31T03:19:29.581Z,12.70
2018-12-31T03:21:58.957Z,10.60
2018-12-31T03:24:29.105Z,10.10
2018-12-31T03:26:58.380Z,11.57
2018-12-31T03:29:27.604Z,9.17
2018-12-31T03:31:56.799Z,15.13
2018-12-31T03:34:26.657Z,10.13
2018-12-31T03:36:57.284Z,10.50
2018-12-31T03:39:27.518Z,8.93
2018-12-31T03:41:57.517Z,10.33
2018-12-31T03:44:27.461Z,12.23
2018-12-31T03:46:56.838Z,9.73
2018-12-31T03:49:26.053Z,10.30
2018-12-31T03:51:56.222Z,11.17
2018-12-31T03:54:25.584Z,9.63
2018-12-31T03:56:55.429Z,11.77
2018-12-31T03:59:25.414Z,11.97
2018-12-31T04:01:55.366Z,11.30
2018-12-31T04:04:25.338Z,11.57
2018-12-31T04:06:55.273Z,11.73
2018-12-31T04:09:24.589Z,11.57
2018-12-31T04:11:54.448Z,10.60
2018-12-31T04:14:24.716Z,12.57
2018-12-31T04:16:54.635Z,9.53
2018-12-31T04:19:23.969Z,9.63
2018-12-31T04:21:53.789Z,8.77
2018-12-31T04:24:23.974Z,9.43
2018-12-31T04:26:53.899Z,9.23
2018-12-31T04:29:23.835Z,8.07
2018-12-31T04:31:54.060Z,8.00
2018-12-31T04:34:23.394Z,8.53
2018-12-31T04:36:53.238Z,8.43
2018-12-31T04:39:22.607Z,7.33
2018-12-31T04:41:52.452Z,8.97
2018-12-31T04:44:21.791Z,7.33
2018-12-31T04:46:51.614Z,8.20
2018-12-31T04:49:21.834Z,7.03
2018-12-31T04:51:51.209Z,8.00
2018-12-31T04:54:20.437Z,5.60
2018-12-31T04:56:50.192Z,6.70
2018-12-31T04:59:20.147Z,7.67
2018-12-31T05:01:50.037Z,6.27
2018-12-31T05:04:19.406Z,7.17
2018-12-31T05:06:49.244Z,4.90
2018-12-31T05:09:18.559Z,6.30
2018-12-31T05:11:49.920Z,5.93
2018-12-31T05:14:20.262Z,7.13
2018-12-31T05:16:49.549Z,8.17
2018-12-31T05:19:19.347Z,6.07
2018-12-31T05:21:49.277Z,4.63
2018-12-31T05:24:19.222Z,5.60
2018-12-31T05:26:49.146Z,5.93
2018-12-31T05:29:19.407Z,4.77
2018-12-31T05:31:49.019Z,5.07
2018-12-31T05:34:18.304Z,4.47
2018-12-31T05:36:48.125Z,5.67
2018-12-31T05:39:18.403Z,6.27
2018-12-31T05:41:48.662Z,8.83
2018-12-31T05:44:18.615Z,5.80
2018-12-31T05:46:48.513Z,5.53
2018-12-31T05:49:18.742Z,6.20
2018-12-31T05:51:48.646Z,4.67
2018-12-31T05:54:17.965Z,5.20
2018-12-31T05:56:47.201Z,4.40
2018-12-31T05:59:16.476Z,4.83
2018-12-31T06:01:45.685Z,4.37
2018-12-31T06:04:15.904Z,3.43
2018-12-31T06:06:45.642Z,3.87
2018-12-31T06:09:14.893Z,3.70
2018-12-31T06:11:44.449Z,3.87
2018-12-31T06:14:13.965Z,4.43
2018-12-31T06:16:43.733Z,4.17
2018-12-31T06:19:13.079Z,2.80
2018-12-31T06:21:42.318Z,2.83
2018-12-31T06:24:12.178Z,4.00
2018-12-31T06:26:42.369Z,3.33
2018-12-31T06:29:12.255Z,3.57
2018-12-31T06:31:42.554Z,4.03
2018-12-31T06:34:12.445Z,5.37
2018-12-31T06:36:41.714Z,3.17
2018-12-31T06:39:11.534Z,2.93
2018-12-31T06:41:41.762Z,3.73
2018-12-31T06:44:11.699Z,3.83
2018-12-31T06:46:41.662Z,3.17
2018-12-31T06:49:11.615Z,3.17
2018-12-31T06:51:41.860Z,3.57
2018-12-31T06:54:11.825Z,3.50
2018-12-31T06:56:41.076Z,2.43
2018-12-31T06:59:10.836Z,2.83
2018-12-31T07:01:41.094Z,10.10
2018-12-31T07:04:11.036Z,2.97
2018-12-31T07:06:41.306Z,4.40
2018-12-31T07:09:11.538Z,4.83
2018-12-31T07:11:41.212Z,2.97
2018-12-31T07:14:11.352Z,3.83
2018-12-31T07:16:40.814Z,3.57
2018-12-31T07:19:10.624Z,3.17
2018-12-31T07:21:40.581Z,2.30
2018-12-31T07:24:10.560Z,2.83
2018-12-31T07:26:40.471Z,3.00
2018-12-31T07:29:10.389Z,3.13
2018-12-31T07:31:39.768Z,3.17
2018-12-31T07:34:09.601Z,2.50
2018-12-31T07:36:39.521Z,3.53
2018-12-31T07:39:08.850Z,3.13
2018-12-31T07:41:38.710Z,3.00
2018-12-31T07:44:08.349Z,3.33
2018-12-31T07:46:38.536Z,3.30
2018-12-31T07:49:07.852Z,4.03
2018-12-31T07:51:37.717Z,3.00
2018-12-31T07:54:07.537Z,3.10
2018-12-31T07:56:37.149Z,2.83
2018-12-31T07:59:07.008Z,2.83
2018-12-31T08:01:36.952Z,2.47
2018-12-31T08:04:07.221Z,3.17
2018-12-31T08:06:36.581Z,2.77
2018-12-31T08:09:07.590Z,3.20
2018-12-31T08:11:37.610Z,2.63
2018-12-31T08:14:07.782Z,3.13
2018-12-31T08:16:37.718Z,3.10
2018-12-31T08:19:07.637Z,2.30
2018-12-31T08:21:37.672Z,2.27
2018-12-31T08:24:07.573Z,2.57
2018-12-31T08:26:37.450Z,2.83
2018-12-31T08:29:07.353Z,2.57
2018-12-31T08:31:37.322Z,3.17
2018-12-31T08:34:07.250Z,2.70
2018-12-31T08:36:36.581Z,3.40
2018-12-31T08:39:09.366Z,2.40
2018-12-31T08:41:39.339Z,5.57
2018-12-31T08:44:09.366Z,2.90
2018-12-31T08:46:39.200Z,2.20
2018-12-31T08:49:09.113Z,2.40
2018-12-31T08:51:38.991Z,4.43
2018-12-31T08:54:08.338Z,3.83
2018-12-31T08:56:38.187Z,3.33
2018-12-31T08:59:08.165Z,3.10
2018-12-31T09:01:38.108Z,2.67
2018-12-31T09:04:08.071Z,2.87
2018-12-31T09:06:37.972Z,2.57
2018-12-31T09:09:08.160Z,4.37
2018-12-31T09:11:37.457Z,3.40
2018-12-31T09:14:06.645Z,2.10
2018-12-31T09:16:36.477Z,2.30
2018-12-31T09:19:05.726Z,2.53
2018-12-31T09:21:35.573Z,3.40
2018-12-31T09:24:05.564Z,3.80
2018-12-31T09:26:35.486Z,3.27
2018-12-31T09:29:05.674Z,3.27
2018-12-31T09:31:35.611Z,3.83
2018-12-31T09:34:05.583Z,2.80
2018-12-31T09:36:36.619Z,4.57
2018-12-31T09:39:08.290Z,2.80
2018-12-31T09:41:38.182Z,2.47
2018-12-31T09:44:08.263Z,3.67
2018-12-31T09:46:38.202Z,3.53
2018-12-31T09:49:08.170Z,2.73
2018-12-31T09:51:38.478Z,2.77
2018-12-31T09:54:08.430Z,2.37
2018-12-31T09:56:38.363Z,3.30
2018-12-31T09:59:08.306Z,2.53
2018-12-31T10:01:38.252Z,1.83
2018-12-31T10:04:07.872Z,3.60
2018-12-31T10:06:38.002Z,2.20
2018-12-31T10:09:08.157Z,3.13
2018-12-31T10:11:38.037Z,2.13
2018-12-31T10:14:07.961Z,5.50
2018-12-31T10:16:37.813Z,3.33
2018-12-31T10:19:07.130Z,2.47
2018-12-31T10:21:41.042Z,2.97
2018-12-31T10:24:07.961Z,3.00
2018-12-31T10:26:37.799Z,2.93
2018-12-31T10:29:07.478Z,2.33
2018-12-31T10:31:43.325Z,1.90
2018-12-31T10:34:15.260Z,2.13
2018-12-31T10:36:45.278Z,2.70
2018-12-31T10:39:15.233Z,3.90
2018-12-31T10:41:44.582Z,2.47
2018-12-31T10:44:13.816Z,3.20
2018-12-31T10:46:42.961Z,2.03
2018-12-31T10:49:12.149Z,2.00
2018-12-31T10:51:41.969Z,2.27
2018-12-31T10:54:12.177Z,2.20
2018-12-31T10:56:41.508Z,2.77
2018-12-31T10:59:11.337Z,3.30
2018-12-31T11:01:41.519Z,2.90
2018-12-31T11:04:10.877Z,2.43
2018-12-31T11:06:40.729Z,2.43
2018-12-31T11:09:32.075Z,1.97
2018-12-31T11:13:10.261Z,4.50
2018-12-31T11:15:40.229Z,2.40
2018-12-31T11:18:15.490Z,3.07
2018-12-31T11:20:45.430Z,2.43
2018-12-31T11:23:14.730Z,3.90
2018-12-31T11:25:44.592Z,2.50
2018-12-31T11:28:13.876Z,3.47
2018-12-31T11:30:43.760Z,2.67
2018-12-31T11:33:13.978Z,2.70
2018-12-31T11:35:43.978Z,3.00
2018-12-31T11:38:13.660Z,3.93
2018-12-31T11:40:43.494Z,3.63
2018-12-31T11:43:13.841Z,4.50
2018-12-31T11:45:43.736Z,3.77
2018-12-31T11:48:13.880Z,2.87
2018-12-31T11:50:44.000Z,3.77
2018-12-31T11:53:13.333Z,3.43
2018-12-31T11:55:42.893Z,5.70
2018-12-31T11:58:12.773Z,2.90
2018-12-31T12:00:42.794Z,2.80
2018-12-31T12:03:12.693Z,2.77
2018-12-31T12:05:42.529Z,3.30
2018-12-31T12:08:12.385Z,3.33
2018-12-31T12:10:42.230Z,3.17
2018-12-31T12:13:12.176Z,3.20
2018-12-31T12:15:42.123Z,4.57
2018-12-31T12:18:12.097Z,3.37
2018-12-31T12:20:42.013Z,2.87
2018-12-31T12:23:12.891Z,3.30
2018-12-31T12:25:42.953Z,5.70
2018-12-31T12:28:12.615Z,3.00
2018-12-31T12:30:42.454Z,3.70
2018-12-31T12:33:12.275Z,3.53
2018-12-31T12:35:41.490Z,6.73
2018-12-31T12:38:11.386Z,4.13
2018-12-31T12:40:41.602Z,4.90
2018-12-31T12:43:11.541Z,4.50
2018-12-31T12:45:41.515Z,4.00
2018-12-31T12:48:11.483Z,4.57
2018-12-31T12:50:41.194Z,4.13
2018-12-31T12:53:10.585Z,4.90
2018-12-31T12:55:42.945Z,3.43
2018-12-31T12:58:13.074Z,3.07
2018-12-31T13:00:43.015Z,4.37
2018-12-31T13:03:12.997Z,3.63
2018-12-31T13:05:42.917Z,8.40
2018-12-31T13:08:12.879Z,5.30
2018-12-31T13:10:44.003Z,3.20
2018-12-31T13:13:14.024Z,3.20
2018-12-31T13:15:43.956Z,3.47
2018-12-31T13:18:13.916Z,2.47
2018-12-31T13:20:46.799Z,3.03
2018-12-31T13:23:17.027Z,4.63
2018-12-31T13:25:48.323Z,2.43
2018-12-31T13:28:18.232Z,2.73
2018-12-31T13:30:48.407Z,3.77
2018-12-31T13:33:18.330Z,3.17
2018-12-31T13:35:48.528Z,4.07
2018-12-31T13:38:18.462Z,3.27
2018-12-31T13:40:49.374Z,4.03
2018-12-31T13:43:19.232Z,4.20
2018-12-31T13:45:53.045Z,5.97
2018-12-31T13:48:26.100Z,3.87
2018-12-31T13:50:56.534Z,4.13
2018-12-31T13:53:26.397Z,5.87
2018-12-31T13:55:58.153Z,4.87
2018-12-31T13:58:29.638Z,4.67
2018-12-31T14:00:59.483Z,3.97
2018-12-31T14:03:29.430Z,4.20
2018-12-31T14:05:58.770Z,3.90
2018-12-31T14:08:46.968Z,6.50
2018-12-31T14:11:18.925Z,5.70
2018-12-31T14:13:48.812Z,5.20
2018-12-31T14:16:18.463Z,9.03
2018-12-31T14:18:49.436Z,9.87
2018-12-31T14:21:19.082Z,7.50
2018-12-31T14:23:48.950Z,5.70
2018-12-31T14:26:18.292Z,3.90
2018-12-31T14:28:48.931Z,8.03
2018-12-31T14:31:19.183Z,4.63
2018-12-31T14:33:49.405Z,5.80
2018-12-31T14:36:18.737Z,5.60
2018-12-31T14:38:48.828Z,6.40
2018-12-31T14:41:19.375Z,7.33
2018-12-31T14:43:49.861Z,8.00
2018-12-31T14:46:19.820Z,4.57
2018-12-31T14:48:49.764Z,5.57
2018-12-31T14:51:19.114Z,5.93
2018-12-31T14:53:49.482Z,6.63
2018-12-31T14:56:19.087Z,6.57
2018-12-31T14:58:48.591Z,7.70
2018-12-31T15:01:17.925Z,7.00
2018-12-31T15:03:47.513Z,6.70
2018-12-31T15:06:17.181Z,7.33
2018-12-31T15:08:46.696Z,7.30
2018-12-31T15:11:15.930Z,9.33
2018-12-31T15:13:45.990Z,7.53
2018-12-31T15:16:16.153Z,8.57
2018-12-31T15:18:46.064Z,6.67
2018-12-31T15:21:16.299Z,8.20
2018-12-31T15:23:45.600Z,10.67
2018-12-31T15:26:15.519Z,8.10
2018-12-31T15:28:45.428Z,9.43
2018-12-31T15:31:15.394Z,13.13
2018-12-31T15:33:44.700Z,9.40
2018-12-31T15:36:13.966Z,8.20
2018-12-31T15:38:45.275Z,9.33
2018-12-31T15:41:15.260Z,8.67
2018-12-31T15:43:45.150Z,8.33
2018-12-31T15:46:20.200Z,8.03
2018-12-31T15:48:45.960Z,8.00
2018-12-31T15:51:16.377Z,8.07
2018-12-31T15:53:45.674Z,8.10
2018-12-31T15:56:15.564Z,10.17
2018-12-31T15:58:45.477Z,8.87
2018-12-31T16:01:16.472Z,11.17
2018-12-31T16:03:46.799Z,10.87
2018-12-31T16:06:16.830Z,12.07
2018-12-31T16:08:46.786Z,11.20
2018-12-31T16:11:16.185Z,9.30
2018-12-31T16:13:46.037Z,11.87
2018-12-31T16:16:15.981Z,12.23
2018-12-31T16:18:45.431Z,10.20
2018-12-31T16:21:15.843Z,9.00
2018-12-31T16:23:45.794Z,12.03
2018-12-31T16:26:16.066Z,13.40
2018-12-31T16:28:46.002Z,10.93
2018-12-31T16:31:16.164Z,12.17
2018-12-31T16:33:46.126Z,11.03
2018-12-31T16:36:15.491Z,21.87
2018-12-31T16:38:45.675Z,12.23
2018-12-31T16:41:15.605Z,12.50
2018-12-31T16:43:45.668Z,13.80
2018-12-31T16:46:16.684Z,18.90
2018-12-31T16:48:46.029Z,14.93
2018-12-31T16:51:17.756Z,13.93
2018-12-31T16:53:47.684Z,16.37
2018-12-31T16:56:17.689Z,14.13
2018-12-31T16:58:47.050Z,17.40
2018-12-31T17:01:16.935Z,14.47
2018-12-31T17:03:46.258Z,13.80
2018-12-31T17:06:16.100Z,19.37
2018-12-31T17:08:46.053Z,14.90
2018-12-31T17:11:15.978Z,12.77
2018-12-31T17:13:45.937Z,17.57
2018-12-31T17:16:15.922Z,16.67
2018-12-31T17:18:45.571Z,19.90
2018-12-31T17:21:15.454Z,17.07
2018-12-31T17:23:44.826Z,22.97
2018-12-31T17:26:18.777Z,27.10
2018-12-31T17:28:48.130Z,55.10
2018-12-31T17:31:18.003Z,53.97
2018-12-31T17:33:47.937Z,28.70
2018-12-31T17:36:17.505Z,27.87
2018-12-31T17:38:48.972Z,23.90
2018-12-31T17:41:18.642Z,19.23
2018-12-31T17:43:48.852Z,18.50
2018-12-31T17:46:18.805Z,19.33
2018-12-31T17:48:49.113Z,19.67
2018-12-31T17:51:18.465Z,19.77
2018-12-31T17:53:48.362Z,22.50
2018-12-31T17:56:17.713Z,26.90
2018-12-31T17:58:47.587Z,27.70
2018-12-31T18:01:17.326Z,26.27
2018-12-31T18:03:46.585Z,26.30
2018-12-31T18:06:15.880Z,23.30
2018-12-31T18:08:45.768Z,25.60
2018-12-31T18:11:15.716Z,23.83
2018-12-31T18:13:45.976Z,20.00
2018-12-31T18:16:15.960Z,25.90
2018-12-31T18:18:45.938Z,24.57
2018-12-31T18:21:16.011Z,24.27
2018-12-31T18:23:45.952Z,26.77
2018-12-31T18:26:16.257Z,28.13
2018-12-31T18:28:45.868Z,29.10
2018-12-31T18:31:15.145Z,26.40
2018-12-31T18:33:45.023Z,24.97
2018-12-31T18:36:14.964Z,25.57
2018-12-31T18:38:45.258Z,36.17
2018-12-31T18:41:15.246Z,30.57
2018-12-31T18:43:44.582Z,30.27
2018-12-31T18:46:13.861Z,28.03
2018-12-31T18:48:43.792Z,27.27
2018-12-31T18:51:14.225Z,28.83
2018-12-31T18:53:44.340Z,29.47
2018-12-31T18:56:13.701Z,34.10
2018-12-31T18:58:43.910Z,30.70
2018-12-31T19:01:13.560Z,25.10
2018-12-31T19:03:42.835Z,26.30
2018-12-31T19:06:12.731Z,27.53
2018-12-31T19:08:43.022Z,25.17
2018-12-31T19:11:13.003Z,29.47
2018-12-31T19:13:43.175Z,46.03
2018-12-31T19:16:13.171Z,37.97
2018-12-31T19:18:43.106Z,37.13
2018-12-31T19:21:13.398Z,36.57
2018-12-31T19:23:42.742Z,37.07
2018-12-31T19:26:13.757Z,44.77
2018-12-31T19:28:43.727Z,36.97
2018-12-31T19:31:13.689Z,40.23
2018-12-31T19:33:43.649Z,44.53
2018-12-31T19:36:13.009Z,37.13
2018-12-31T19:38:42.902Z,51.00
2018-12-31T19:41:12.877Z,46.70
2018-12-31T19:43:42.816Z,48.43
2018-12-31T19:46:12.744Z,36.67
2018-12-31T19:48:42.705Z,37.60
2018-12-31T19:51:12.030Z,34.50
2018-12-31T19:53:42.186Z,38.33
2018-12-31T19:56:12.481Z,33.13
2018-12-31T19:58:42.447Z,34.43
2018-12-31T20:01:12.810Z,37.60
2018-12-31T20:03:42.142Z,34.97
2018-12-31T20:06:12.013Z,34.10
2018-12-31T20:08:41.942Z,33.17
2018-12-31T20:11:11.689Z,36.30
2018-12-31T20:13:41.172Z,38.43
2018-12-31T20:16:11.050Z,36.10
2018-12-31T20:18:40.385Z,35.37
2018-12-31T20:21:10.289Z,34.43
2018-12-31T20:23:39.889Z,34.33
2018-12-31T20:26:09.507Z,39.00
2018-12-31T20:28:39.613Z,35.13
2018-12-31T20:31:09.634Z,34.77
2018-12-31T20:33:39.289Z,34.03
2018-12-31T20:36:09.149Z,33.47
2018-12-31T20:38:39.484Z,36.77
2018-12-31T20:41:09.413Z,42.00
2018-12-31T20:43:38.770Z,37.80
2018-12-31T20:46:08.654Z,40.17
2018-12-31T20:48:38.613Z,49.93
2018-12-31T20:51:08.571Z,41.57
2018-12-31T20:53:37.977Z,45.50
2018-12-31T20:56:07.816Z,49.40
2018-12-31T20:58:37.851Z,55.53
2018-12-31T21:01:08.080Z,51.47
2018-12-31T21:03:37.431Z,40.43
2018-12-31T21:06:07.591Z,41.93
2018-12-31T21:08:37.566Z,49.20
2018-12-31T21:11:07.645Z,53.90
2018-12-31T21:13:37.603Z,51.53
2018-12-31T21:16:06.973Z,81.03
2018-12-31T21:18:37.394Z,63.00
2018-12-31T21:21:07.067Z,54.37
2018-12-31T21:23:37.007Z,48.70
2018-12-31T21:26:07.004Z,54.73
2018-12-31T21:28:37.376Z,52.40
2018-12-31T21:31:07.318Z,50.13
2018-12-31T21:33:37.294Z,45.77
2018-12-31T21:36:07.328Z,75.60
2018-12-31T21:38:37.257Z,70.50
2018-12-31T21:41:07.504Z,79.27
2018-12-31T21:43:36.882Z,50.07
2018-12-31T21:46:06.776Z,102.13
2018-12-31T21:48:36.174Z,49.60
2018-12-31T21:51:06.069Z,51.03
2018-12-31T21:53:36.467Z,46.63
2018-12-31T21:56:06.458Z,50.93
2018-12-31T21:58:36.447Z,50.30
2018-12-31T22:01:07.484Z,44.83
2018-12-31T22:03:37.490Z,59.53
2018-12-31T22:06:07.647Z,90.30
2018-12-31T22:08:37.647Z,57.60
2018-12-31T22:11:07.597Z,72.03
2018-12-31T22:13:37.022Z,46.33
2018-12-31T22:16:06.883Z,37.27
2018-12-31T22:18:36.890Z,31.57
2018-12-31T22:21:08.594Z,36.50
2018-12-31T22:23:38.574Z,40.63
2018-12-31T22:26:08.565Z,50.93
2018-12-31T22:28:38.595Z,46.47
2018-12-31T22:31:08.558Z,41.43
2018-12-31T22:33:38.552Z,44.97
2018-12-31T22:36:07.900Z,53.57
2018-12-31T22:38:37.774Z,49.53
2018-12-31T22:41:07.718Z,44.80
2018-12-31T22:43:37.118Z,43.07
2018-12-31T22:46:06.961Z,43.23
2018-12-31T22:48:36.962Z,39.17
2018-12-31T22:51:06.914Z,30.77
2018-12-31T22:53:37.080Z,38.37
2018-12-31T22:56:06.335Z,40.70
2018-12-31T22:58:36.244Z,305.17
2018-12-31T23:01:06.193Z,705.40
2018-12-31T23:03:35.873Z,759.17
2018-12-31T23:06:05.218Z,505.17
2018-12-31T23:08:36.902Z,451.47
2018-12-31T23:11:06.903Z,726.70
2018-12-31T23:13:37.717Z,594.90
2018-12-31T23:16:07.407Z,668.13
2018-12-31T23:18:37.466Z,613.97
2018-12-31T23:21:06.872Z,708.30
2018-12-31T23:23:36.716Z,642.77
2018-12-31T23:26:06.770Z,561.70
2018-12-31T23:28:36.134Z,516.97
2018-12-31T23:31:06.078Z,521.03
2018-12-31T23:33:36.383Z,534.47
2018-12-31T23:36:05.802Z,500.77
2018-12-31T23:38:35.689Z,461.50
2018-12-31T23:41:05.484Z,426.07
2018-12-31T23:43:35.392Z,433.80
2018-12-31T23:46:04.798Z,412.67
2018-12-31T23:48:34.682Z,393.50
2018-12-31T23:51:04.730Z,398.90
2018-12-31T23:53:35.014Z,389.57
2018-12-31T23:56:06.111Z,395.73
2018-12-31T23:58:36.378Z,354.50
